Portada
METAR-TAF:

METAR-TAF

Aeroports :

Lampang, Tailàndia

latitud: 18-17N, longitud: 099-31E, altitud: 241 m

Observació

L'informe es va fer fa 51 minuts, a les 00:00 UTC
Vent calma
Temperatura 17°C
Humitat 94%
Pressió 1017 hPa
Visibilitat: 6000 m

METAR: VTCL 220000Z 00000KT 6000 NSC 17/16 Q1017 NOSIG

Hora: 07:51 (00:51 UTC)

Pronòstic

L'informe es va fer fa 1 hora i 51 minuts, a les 23:00 UTC
Pronòstic vàlid del 22 a les 00 UTC al 22 a les 24 UTC
Vent 5 kt del Sud-Est
Visibilitat 10 km o més
Escasses núvols a una alçada de 3500 ft

TAF: VTCL 212300Z 2200/2224 14005KT 9999 FEW035

Observacions i pronòstics meteorològics de més de 4000 aeroports (METAR i TAF).

Les estacions disponibles són els punts grocs i vermells al mapa.

Posi el ratolí al punt desitjat per veure el nom de l'estació.

Feu clic per veure les observacions i els pronòstics meteorològics.

Per canviar el mapa: feu clic els botons verds amb una creu de color negre per apropar; al botó verd amb un guió per allunyar la imatge; o en les fletxes verdes per a mapes adjacents.


METAR-TAF: